createdAt,value
2022-12-01T00:01:20.314Z,101902.94
2022-12-01T00:03:47.312Z,101882.66
2022-12-01T00:06:16.993Z,101891.13
2022-12-01T00:08:45.133Z,101866.34
2022-12-01T00:11:12.226Z,101897.41
2022-12-01T00:13:39.135Z,101883.66
2022-12-01T00:16:11.245Z,101869.28
2022-12-01T00:18:38.213Z,101891.94
2022-12-01T00:21:05.256Z,101885.22
2022-12-01T00:23:32.218Z,101886.41
2022-12-01T00:26:03.955Z,101904.09
2022-12-01T00:28:31.028Z,101886.56
2022-12-01T00:30:58.072Z,101894.47
2022-12-01T00:33:24.959Z,101886.97
2022-12-01T00:35:58.510Z,101853.34
2022-12-01T00:38:25.924Z,101901.91
2022-12-01T00:40:52.796Z,101865.06
2022-12-01T00:43:19.856Z,101877.66
2022-12-01T00:45:46.954Z,101906.19
2022-12-01T00:48:13.862Z,101885.75
2022-12-01T00:50:41.476Z,101887.47
2022-12-01T00:53:08.535Z,101877.22
2022-12-01T00:55:36.273Z,101896.19
2022-12-01T00:58:03.267Z,101874.31
2022-12-01T01:00:30.163Z,101882.34
2022-12-01T01:02:57.097Z,101897.13
2022-12-01T01:05:24.026Z,101896.56
2022-12-01T01:07:50.955Z,101876.13
2022-12-01T01:10:17.919Z,101890.13
2022-12-01T01:12:44.902Z,101880.88
2022-12-01T01:15:11.730Z,101889.94
2022-12-01T01:17:38.662Z,101889.91
2022-12-01T01:20:06.146Z,101906.28
2022-12-01T01:22:35.577Z,101893.50
2022-12-01T01:25:02.369Z,101929.28
2022-12-01T01:27:29.261Z,101881.09
2022-12-01T01:29:56.102Z,101900.19
2022-12-01T01:32:23.034Z,101888.16
2022-12-01T01:34:49.930Z,101906.66
2022-12-01T01:37:16.764Z,101901.34
2022-12-01T01:39:43.596Z,101873.22
2022-12-01T01:42:14.687Z,101890.31
2022-12-01T01:44:58.795Z,101888.38
2022-12-01T01:47:36.189Z,101884.44
2022-12-01T01:50:09.538Z,101882.84
2022-12-01T01:52:40.384Z,101877.94
2022-12-01T01:55:07.965Z,101895.66
2022-12-01T01:57:36.039Z,101879.72
2022-12-01T02:00:10.947Z,101879.72
2022-12-01T02:02:43.845Z,101859.28
2022-12-01T02:05:24.331Z,101871.84
2022-12-01T02:07:53.591Z,101899.19
2022-12-01T02:10:24.431Z,101874.00
2022-12-01T02:13:37.282Z,101892.28
2022-12-01T02:16:14.427Z,101887.16
2022-12-01T02:18:52.330Z,101877.34
2022-12-01T02:21:37.236Z,101892.28
2022-12-01T02:24:41.949Z,101875.00
2022-12-01T02:27:36.140Z,101873.41
2022-12-01T02:30:16.583Z,101882.06
2022-12-01T02:32:46.778Z,101883.25
2022-12-01T02:35:36.318Z,101899.59
2022-12-01T02:38:44.963Z,101882.47
2022-12-01T02:41:29.387Z,101871.47
2022-12-01T02:44:15.697Z,101886.81
2022-12-01T02:46:49.684Z,101867.06
2022-12-01T02:49:22.769Z,101867.03
2022-12-01T02:51:52.529Z,101869.84
2022-12-01T02:54:31.363Z,101854.53
2022-12-01T02:56:58.329Z,101859.97
2022-12-01T02:59:25.685Z,101877.53
2022-12-01T03:02:33.097Z,101855.09
2022-12-01T03:05:07.889Z,101868.63
2022-12-01T03:07:43.303Z,101881.16
2022-12-01T03:10:25.475Z,101881.78
2022-12-01T03:13:19.905Z,101882.94
2022-12-01T03:16:03.557Z,101885.31
2022-12-01T03:18:39.371Z,101893.00
2022-12-01T03:21:36.177Z,101864.28
2022-12-01T03:24:11.436Z,101893.38
2022-12-01T03:26:42.134Z,101845.47
2022-12-01T03:29:15.788Z,101886.69
2022-12-01T03:31:49.056Z,101877.84
2022-12-01T03:34:25.983Z,101898.91
2022-12-01T03:36:59.164Z,101902.88
2022-12-01T03:39:31.023Z,101868.63
2022-12-01T03:42:15.783Z,101879.06
2022-12-01T03:45:07.098Z,101894.81
2022-12-01T03:47:35.020Z,101881.84
2022-12-01T03:50:04.278Z,101911.16
2022-12-01T03:53:06.564Z,101886.78
2022-12-01T03:55:41.074Z,101895.00
2022-12-01T03:58:14.303Z,101895.41
2022-12-01T04:00:42.433Z,101903.50
2022-12-01T04:03:18.100Z,101883.41
2022-12-01T04:05:45.267Z,101905.22
2022-12-01T04:08:12.350Z,101904.63
2022-12-01T04:10:39.318Z,101899.13
2022-12-01T04:13:06.277Z,101913.94
2022-12-01T04:15:33.222Z,101895.63
2022-12-01T04:18:00.090Z,101909.66
2022-12-01T04:20:27.006Z,101913.16
2022-12-01T04:22:53.791Z,101912.25
2022-12-01T04:25:20.770Z,101905.75
2022-12-01T04:27:47.563Z,101905.19
2022-12-01T04:30:14.696Z,101906.53
2022-12-01T04:32:43.385Z,101885.94
2022-12-01T04:35:12.314Z,101919.47
2022-12-01T04:37:39.965Z,101909.50
2022-12-01T04:40:08.549Z,101910.72
2022-12-01T04:42:35.592Z,101915.28
2022-12-01T04:45:02.638Z,101921.13
2022-12-01T04:47:29.482Z,101916.34
2022-12-01T04:49:56.366Z,101929.47
2022-12-01T04:52:23.225Z,101919.53
2022-12-01T04:54:50.185Z,101931.91
2022-12-01T04:57:17.080Z,101925.00
2022-12-01T04:59:43.970Z,101918.88
2022-12-01T05:02:10.878Z,101917.34
2022-12-01T05:04:37.991Z,101928.94
2022-12-01T05:07:04.820Z,101924.16
2022-12-01T05:09:31.868Z,101910.50
2022-12-01T05:11:58.860Z,101916.38
2022-12-01T05:14:25.784Z,101908.63
2022-12-01T05:16:52.651Z,101920.94
2022-12-01T05:19:19.498Z,101904.88
2022-12-01T05:21:48.815Z,101927.41
2022-12-01T05:24:16.813Z,101929.16
2022-12-01T05:26:44.816Z,101916.09
2022-12-01T05:29:12.646Z,101924.63
2022-12-01T05:31:40.021Z,101946.91
2022-12-01T05:34:07.598Z,101937.34
2022-12-01T05:36:34.721Z,101937.66
2022-12-01T05:39:01.622Z,101923.97
2022-12-01T05:41:28.476Z,101938.91
2022-12-01T05:43:55.522Z,101891.69
2022-12-01T05:46:22.523Z,101921.50
2022-12-01T05:48:49.438Z,101923.47
2022-12-01T05:51:17.790Z,101921.91
2022-12-01T05:53:45.295Z,101917.53
2022-12-01T05:56:12.491Z,101915.19
2022-12-01T05:58:39.448Z,101919.56
2022-12-01T06:01:06.664Z,101932.59
2022-12-01T06:03:33.652Z,101921.78
2022-12-01T06:06:00.537Z,101919.22
2022-12-01T06:08:27.649Z,101929.66
2022-12-01T06:10:54.586Z,101928.69
2022-12-01T06:13:21.560Z,101954.88
2022-12-01T06:16:03.551Z,101918.84
2022-12-01T06:18:32.363Z,101916.28
2022-12-01T06:20:59.219Z,101911.16
2022-12-01T06:23:30.136Z,101937.56
2022-12-01T06:25:58.285Z,101933.44
2022-12-01T06:28:25.149Z,101938.34
2022-12-01T06:30:51.988Z,101958.59
2022-12-01T06:33:18.849Z,101935.19
2022-12-01T06:35:45.748Z,101920.00
2022-12-01T06:38:12.623Z,101930.75
2022-12-01T06:40:39.498Z,101911.31
2022-12-01T06:43:06.294Z,101930.41
2022-12-01T06:45:33.239Z,101943.31
2022-12-01T06:48:00.308Z,101925.16
2022-12-01T06:50:27.210Z,101903.50
2022-12-01T06:52:54.999Z,101939.88
2022-12-01T06:55:22.237Z,101938.63
2022-12-01T06:57:49.831Z,101918.34
2022-12-01T07:00:17.384Z,101939.25
2022-12-01T07:02:44.831Z,101930.25
2022-12-01T07:05:11.924Z,101942.13
2022-12-01T07:07:39.808Z,101941.06
2022-12-01T07:10:08.852Z,101946.44
2022-12-01T07:12:35.727Z,101903.66
2022-12-01T07:15:03.150Z,101917.31
2022-12-01T07:17:30.088Z,101935.69
2022-12-01T07:19:57.452Z,101935.00
2022-12-01T07:22:29.527Z,101933.09
2022-12-01T07:24:59.364Z,101917.00
2022-12-01T07:27:29.824Z,101926.06
2022-12-01T07:29:56.753Z,101929.00
2022-12-01T07:32:23.659Z,101939.28
2022-12-01T07:34:50.706Z,101933.00
2022-12-01T07:37:17.631Z,101926.75
2022-12-01T07:39:44.557Z,101902.16
2022-12-01T07:42:11.408Z,101914.59
2022-12-01T07:44:38.339Z,101924.81
2022-12-01T07:47:05.212Z,101912.66
2022-12-01T07:49:32.145Z,101928.47
2022-12-01T07:51:59.136Z,101907.25
2022-12-01T07:54:26.031Z,101909.16
2022-12-01T07:56:53.004Z,101880.41
2022-12-01T07:59:19.894Z,101872.59
2022-12-01T08:01:46.777Z,101911.13
2022-12-01T08:04:13.780Z,101919.06
2022-12-01T08:06:40.586Z,101914.81
2022-12-01T08:09:07.580Z,101917.16
2022-12-01T08:11:34.506Z,101909.19
2022-12-01T08:14:01.693Z,101919.38
2022-12-01T08:16:28.556Z,101897.75
2022-12-01T08:18:55.515Z,101909.53
2022-12-01T08:21:24.003Z,101909.97
2022-12-01T08:23:58.355Z,101892.00
2022-12-01T08:26:26.852Z,101882.44
2022-12-01T08:28:54.188Z,101887.84
2022-12-01T08:31:25.554Z,101898.91
2022-12-01T08:33:53.591Z,101901.09
2022-12-01T08:36:21.643Z,101908.34
2022-12-01T08:38:53.967Z,101909.72
2022-12-01T08:41:21.850Z,101893.75
2022-12-01T08:44:03.982Z,101882.41
2022-12-01T08:46:35.268Z,101905.34
2022-12-01T08:49:04.936Z,101879.03
2022-12-01T08:51:32.341Z,101897.75
2022-12-01T08:54:00.644Z,101874.25
2022-12-01T08:56:36.266Z,101890.50
2022-12-01T08:59:04.189Z,101887.19
2022-12-01T09:01:31.453Z,101884.94
2022-12-01T09:04:00.125Z,101870.69
2022-12-01T09:06:27.002Z,101861.66
2022-12-01T09:08:54.030Z,101868.28
2022-12-01T09:11:20.816Z,101883.47
2022-12-01T09:13:54.300Z,101866.91
2022-12-01T09:16:22.190Z,101875.25
2022-12-01T09:18:49.280Z,101865.69
2022-12-01T09:21:24.605Z,101857.09
2022-12-01T09:23:52.511Z,101862.28
2022-12-01T09:26:20.123Z,101858.41
2022-12-01T09:28:48.877Z,101856.41
2022-12-01T09:31:17.334Z,101864.88
2022-12-01T09:33:44.781Z,101846.25
2022-12-01T09:36:12.044Z,101863.19
2022-12-01T09:38:39.873Z,101851.34
2022-12-01T09:41:18.732Z,101874.00
2022-12-01T09:44:00.394Z,101850.78
2022-12-01T09:46:37.412Z,101877.06
2022-12-01T09:49:06.418Z,101859.91
2022-12-01T09:51:34.368Z,101866.66
2022-12-01T09:54:03.011Z,101867.75
2022-12-01T09:56:36.797Z,101854.75
2022-12-01T09:59:06.729Z,101879.06
2022-12-01T10:01:44.542Z,101866.69
2022-12-01T10:04:22.875Z,101842.41
2022-12-01T10:06:59.673Z,101851.16
2022-12-01T10:09:46.184Z,101848.09
2022-12-01T10:12:18.426Z,101856.09
2022-12-01T10:14:47.718Z,101843.72
2022-12-01T10:17:36.122Z,101863.25
2022-12-01T10:20:23.830Z,101851.63
2022-12-01T10:23:17.262Z,101848.66
2022-12-01T10:26:09.136Z,101843.16
2022-12-01T10:29:03.923Z,101823.38
2022-12-01T10:31:45.142Z,101840.38
2022-12-01T10:34:19.999Z,101827.22
2022-12-01T10:36:47.331Z,101863.97
2022-12-01T10:39:23.980Z,101844.25
2022-12-01T10:41:51.766Z,101857.34
2022-12-01T10:44:19.408Z,101845.88
2022-12-01T10:46:56.621Z,101827.72
2022-12-01T10:49:37.653Z,101820.50
2022-12-01T10:52:05.491Z,101842.38
2022-12-01T10:54:40.273Z,101851.16
2022-12-01T10:57:15.807Z,101847.13
2022-12-01T10:59:55.709Z,101838.41
2022-12-01T11:02:26.670Z,101833.34
2022-12-01T11:04:57.932Z,101850.47
2022-12-01T11:07:34.877Z,101851.41
2022-12-01T11:10:26.905Z,101833.50
2022-12-01T11:12:58.933Z,101826.38
2022-12-01T11:15:40.790Z,101853.22
2022-12-01T11:18:35.218Z,101811.91
2022-12-01T11:21:14.286Z,101826.03
2022-12-01T11:23:52.370Z,101812.88
2022-12-01T11:26:25.169Z,101827.75
2022-12-01T11:29:05.468Z,101833.16
2022-12-01T11:31:50.582Z,101812.09
2022-12-01T11:34:30.132Z,101800.41
2022-12-01T11:37:03.205Z,101800.88
2022-12-01T11:39:32.543Z,101803.84
2022-12-01T11:42:17.642Z,101805.72
2022-12-01T11:45:11.768Z,101799.97
2022-12-01T11:47:59.310Z,101805.94
2022-12-01T11:50:29.384Z,101812.78
2022-12-01T11:52:56.333Z,101809.47
2022-12-01T11:55:26.417Z,101828.06
2022-12-01T11:57:56.411Z,101812.31
2022-12-01T12:00:28.996Z,101805.41
2022-12-01T12:03:15.075Z,101798.94
2022-12-01T12:06:01.379Z,101814.47
2022-12-01T12:09:04.653Z,101845.59
2022-12-01T12:11:49.756Z,101792.75
2022-12-01T12:14:48.709Z,101808.00
2022-12-01T12:17:18.527Z,101835.25
2022-12-01T12:20:27.955Z,101777.41
2022-12-01T12:23:03.696Z,101823.81
2022-12-01T12:25:41.738Z,101816.94
2022-12-01T12:28:35.861Z,101812.75
2022-12-01T12:31:19.485Z,101794.56
2022-12-01T12:34:13.458Z,101802.72
2022-12-01T12:36:52.506Z,101811.19
2022-12-01T12:39:49.621Z,101794.38
2022-12-01T12:42:54.020Z,101798.63
2022-12-01T12:45:46.345Z,101800.88
2022-12-01T12:48:29.568Z,101811.34
2022-12-01T12:50:56.428Z,101814.13
2022-12-01T12:53:28.930Z,101795.53
2022-12-01T12:56:05.153Z,101801.22
2022-12-01T12:58:43.465Z,101789.41
2022-12-01T13:01:21.222Z,101884.31
2022-12-01T13:04:13.664Z,101788.31
2022-12-01T13:06:49.177Z,101814.13
2022-12-01T13:09:35.852Z,101781.34
2022-12-01T13:12:19.663Z,101796.41
2022-12-01T13:14:55.175Z,101790.72
2022-12-01T13:17:35.841Z,101805.13
2022-12-01T13:20:04.392Z,101801.22
2022-12-01T13:22:35.463Z,101803.63
2022-12-01T13:25:05.724Z,101790.25
2022-12-01T13:27:37.161Z,101800.72
2022-12-01T13:30:04.718Z,101788.53
2022-12-01T13:32:37.277Z,101790.09
2022-12-01T13:35:27.484Z,101792.59
2022-12-01T13:38:16.876Z,101800.19
2022-12-01T13:40:43.898Z,101794.94
2022-12-01T13:43:22.763Z,101784.16
2022-12-01T13:45:50.203Z,101789.00
2022-12-01T13:48:42.014Z,101789.34
2022-12-01T13:51:08.996Z,101799.06
2022-12-01T13:53:38.029Z,101787.81
2022-12-01T13:56:17.114Z,101807.88
2022-12-01T13:58:47.842Z,101777.50
2022-12-01T14:01:21.268Z,101803.38
2022-12-01T14:04:15.973Z,101791.88
2022-12-01T14:06:44.117Z,101796.53
2022-12-01T14:09:32.424Z,101789.28
2022-12-01T14:12:06.609Z,101787.91
2022-12-01T14:14:39.098Z,101785.59
2022-12-01T14:17:07.725Z,101777.84
2022-12-01T14:19:37.050Z,101793.44
2022-12-01T14:22:15.806Z,101806.03
2022-12-01T14:24:52.013Z,101789.94
2022-12-01T14:27:43.044Z,101790.56
2022-12-01T14:30:40.974Z,101789.16
2022-12-01T14:33:38.989Z,101803.25
2022-12-01T14:36:25.150Z,101787.97
2022-12-01T14:38:58.146Z,101813.59
2022-12-01T14:41:36.553Z,101804.78
2022-12-01T14:44:23.225Z,101801.31
2022-12-01T14:47:04.700Z,101798.19
2022-12-01T14:49:43.080Z,101800.47
2022-12-01T14:52:29.428Z,101787.00
2022-12-01T14:54:59.646Z,101791.28
2022-12-01T14:57:37.713Z,101793.72
2022-12-01T15:00:07.464Z,101800.44
2022-12-01T15:02:39.581Z,101808.63
2022-12-01T15:05:17.708Z,101807.22
2022-12-01T15:07:47.612Z,101806.25
2022-12-01T15:10:29.447Z,101819.13
2022-12-01T15:12:56.488Z,101817.00
2022-12-01T15:15:26.223Z,101798.00
2022-12-01T15:17:54.499Z,101806.41
2022-12-01T15:20:43.566Z,101805.22
2022-12-01T15:23:16.514Z,101802.16
2022-12-01T15:25:45.666Z,101827.31
2022-12-01T15:28:15.817Z,101825.66
2022-12-01T15:30:45.494Z,101810.28
2022-12-01T15:33:28.324Z,101812.28
2022-12-01T15:36:00.479Z,101802.66
2022-12-01T15:38:34.238Z,101801.44
2022-12-01T15:43:58.971Z,101791.75
2022-12-01T15:46:34.397Z,101789.59
2022-12-01T15:49:16.063Z,101801.59
2022-12-01T15:51:43.594Z,101807.00
2022-12-01T15:54:30.954Z,101802.75
2022-12-01T15:56:59.436Z,101773.13
2022-12-01T15:59:31.316Z,101799.63
2022-12-01T16:01:59.037Z,101791.91
2022-12-01T16:04:29.437Z,101791.69
2022-12-01T16:07:05.608Z,101806.59
2022-12-01T16:09:38.976Z,101793.91
2022-12-01T16:12:18.145Z,101764.38
2022-12-01T16:14:53.008Z,101796.72
2022-12-01T16:17:20.691Z,101777.59
2022-12-01T16:19:47.572Z,101805.47
2022-12-01T16:22:20.327Z,101789.25
2022-12-01T16:24:53.716Z,101778.16
2022-12-01T16:27:29.499Z,101798.63
2022-12-01T16:30:06.620Z,101762.75
2022-12-01T16:32:41.086Z,101771.47
2022-12-01T16:35:26.648Z,101765.44
2022-12-01T16:37:54.912Z,101768.47
2022-12-01T16:40:21.860Z,101748.41
2022-12-01T16:42:49.128Z,101760.75
2022-12-01T16:45:20.969Z,101761.53
2022-12-01T16:47:52.346Z,101762.81
2022-12-01T16:50:22.597Z,101762.31
2022-12-01T16:52:54.628Z,101774.50
2022-12-01T16:55:56.222Z,101759.72
2022-12-01T16:58:24.621Z,101756.00
2022-12-01T17:00:52.166Z,101760.16
2022-12-01T17:03:22.386Z,101745.53
2022-12-01T17:05:50.004Z,101767.44
2022-12-01T17:08:17.483Z,101763.97
2022-12-01T17:10:46.285Z,101776.72
2022-12-01T17:13:14.114Z,101756.38
2022-12-01T17:15:48.652Z,101738.13
2022-12-01T17:18:17.486Z,101756.34
2022-12-01T17:20:55.904Z,101727.97
2022-12-01T17:23:22.901Z,101773.38
2022-12-01T17:25:49.928Z,101746.06
2022-12-01T17:28:16.872Z,101774.59
2022-12-01T17:30:43.832Z,101756.03
2022-12-01T17:33:10.791Z,101745.63
2022-12-01T17:35:40.809Z,101752.56
2022-12-01T17:38:08.264Z,101737.69
2022-12-01T17:40:35.663Z,101745.97
2022-12-01T17:43:02.675Z,101729.78
2022-12-01T17:45:29.824Z,101737.13
2022-12-01T17:47:56.754Z,101743.97
2022-12-01T17:50:24.264Z,101736.56
2022-12-01T17:52:51.228Z,101733.00
2022-12-01T17:55:18.412Z,101749.66
2022-12-01T17:57:45.415Z,101753.00
2022-12-01T18:00:13.158Z,101749.09
2022-12-01T18:02:40.238Z,101762.16
2022-12-01T18:05:07.843Z,101737.34
2022-12-01T18:07:34.911Z,101724.38
2022-12-01T18:10:01.993Z,101745.72
2022-12-01T18:12:28.986Z,101752.38
2022-12-01T18:14:55.931Z,101737.22
2022-12-01T18:17:23.178Z,101749.22
2022-12-01T18:19:50.093Z,101757.91
2022-12-01T18:22:17.567Z,101722.59
2022-12-01T18:24:45.858Z,101752.84
2022-12-01T18:27:12.967Z,101724.34
2022-12-01T18:29:41.541Z,101751.53
2022-12-01T18:32:08.717Z,101723.31
2022-12-01T18:34:35.687Z,101724.00
2022-12-01T18:37:03.350Z,101764.63
2022-12-01T18:39:30.282Z,101750.44
2022-12-01T18:41:57.732Z,101744.50
2022-12-01T18:44:24.656Z,101738.25
2022-12-01T18:46:51.677Z,101720.59
2022-12-01T18:49:19.081Z,101721.50
2022-12-01T18:51:46.236Z,101755.13
2022-12-01T18:54:14.831Z,101748.88
2022-12-01T18:56:42.510Z,101749.56
2022-12-01T18:59:11.862Z,101760.75
2022-12-01T19:01:43.841Z,101751.44
2022-12-01T19:04:11.801Z,101751.13
2022-12-01T19:06:40.296Z,101746.41
2022-12-01T19:09:10.797Z,101768.09
2022-12-01T19:11:40.645Z,101745.06
2022-12-01T19:14:12.135Z,101759.03
2022-12-01T19:16:40.145Z,101753.34
2022-12-01T19:19:07.250Z,101743.16
2022-12-01T19:21:34.378Z,101764.41
2022-12-01T19:24:01.391Z,101754.00
2022-12-01T19:26:28.391Z,101740.81
2022-12-01T19:28:55.352Z,101730.19
2022-12-01T19:31:24.207Z,101736.22
2022-12-01T19:33:53.195Z,101739.03
2022-12-01T19:36:23.288Z,101736.91
2022-12-01T19:38:50.892Z,101746.97
2022-12-01T19:41:18.750Z,101727.19
2022-12-01T19:43:45.908Z,101754.47
2022-12-01T19:46:19.342Z,101749.84
2022-12-01T19:48:47.803Z,101749.53
2022-12-01T19:51:26.296Z,101752.78
2022-12-01T19:53:54.483Z,101763.97
2022-12-01T19:56:22.370Z,101731.22
2022-12-01T19:58:49.779Z,101729.53
2022-12-01T20:01:18.452Z,101766.44
2022-12-01T20:03:50.722Z,101743.19
2022-12-01T20:06:23.641Z,101742.50
2022-12-01T20:08:51.905Z,101754.91
2022-12-01T20:11:19.247Z,101756.47
2022-12-01T20:13:47.566Z,101754.81
2022-12-01T20:16:18.099Z,101755.13
2022-12-01T20:18:45.454Z,101757.38
2022-12-01T20:21:22.580Z,101765.41
2022-12-01T20:24:18.520Z,101757.81
2022-12-01T20:26:53.624Z,101732.88
2022-12-01T20:29:26.609Z,101760.16
2022-12-01T20:31:55.803Z,101746.84
2022-12-01T20:34:26.446Z,101759.03
2022-12-01T20:36:53.816Z,101758.22
2022-12-01T20:39:21.303Z,101767.56
2022-12-01T20:41:48.319Z,101761.38
2022-12-01T20:44:16.768Z,101756.84
2022-12-01T20:46:44.652Z,101763.94
2022-12-01T20:49:12.573Z,101751.31
2022-12-01T20:51:39.543Z,101744.50
2022-12-01T20:56:56.004Z,101748.09
2022-12-01T20:59:23.156Z,101745.31
2022-12-01T21:01:50.174Z,101733.53
2022-12-01T21:04:17.521Z,101726.16
2022-12-01T21:06:44.608Z,101731.97
2022-12-01T21:09:11.816Z,101734.66
2022-12-01T21:11:47.444Z,101738.34
2022-12-01T21:14:35.324Z,101748.53
2022-12-01T21:17:28.286Z,101747.34
2022-12-01T21:20:03.077Z,101727.56
2022-12-01T21:22:30.781Z,101730.41
2022-12-01T21:25:10.099Z,101731.09
2022-12-01T21:27:37.235Z,101730.22
2022-12-01T21:30:14.574Z,101732.22
2022-12-01T21:32:44.132Z,101717.13
2022-12-01T21:35:19.048Z,101728.28
2022-12-01T21:37:47.412Z,101734.50
2022-12-01T21:40:23.455Z,101747.94
2022-12-01T21:42:50.841Z,101751.44
2022-12-01T21:45:31.412Z,101755.03
2022-12-01T21:48:14.055Z,101745.84
2022-12-01T21:50:41.098Z,101728.59
2022-12-01T21:53:16.492Z,101745.91
2022-12-01T21:55:45.373Z,101734.38
2022-12-01T21:58:37.401Z,101727.69
2022-12-01T22:01:16.728Z,101737.56
2022-12-01T22:03:45.574Z,101720.69
2022-12-01T22:06:31.562Z,101739.81
2022-12-01T22:09:12.679Z,101718.91
2022-12-01T22:11:43.214Z,101726.28
2022-12-01T22:14:20.998Z,101728.50
2022-12-01T22:17:01.204Z,101721.94
2022-12-01T22:19:31.891Z,101739.91
2022-12-01T22:22:10.896Z,101746.84
2022-12-01T22:24:45.306Z,101741.16
2022-12-01T22:27:27.520Z,101751.31
2022-12-01T22:29:59.243Z,101770.13
2022-12-01T22:32:36.318Z,101743.97
2022-12-01T22:35:26.580Z,101741.50
2022-12-01T22:38:19.956Z,101770.91
2022-12-01T22:41:02.407Z,101758.38
2022-12-01T22:43:39.151Z,101759.28
2022-12-01T22:46:16.838Z,101756.47
2022-12-01T22:49:06.805Z,101760.06
2022-12-01T22:52:07.181Z,101760.28
2022-12-01T22:54:46.665Z,101738.56
2022-12-01T22:57:34.109Z,101756.03
2022-12-01T23:00:20.553Z,101757.38
2022-12-01T23:02:52.974Z,101750.75
2022-12-01T23:05:30.142Z,101743.41
2022-12-01T23:07:57.528Z,101748.25
2022-12-01T23:10:35.044Z,101745.72
2022-12-01T23:13:18.678Z,101732.53
2022-12-01T23:15:47.580Z,101758.53
2022-12-01T23:18:30.950Z,101734.16
2022-12-01T23:21:00.173Z,101745.88
2022-12-01T23:23:35.868Z,101754.72
2022-12-01T23:26:07.162Z,101752.44
2022-12-01T23:28:36.977Z,101739.31
2022-12-01T23:31:03.907Z,101746.09
2022-12-01T23:33:35.201Z,101749.44
2022-12-01T23:36:03.989Z,101734.97
2022-12-01T23:38:36.727Z,101730.75
2022-12-01T23:41:10.681Z,101759.41
2022-12-01T23:43:44.272Z,101752.28
2022-12-01T23:46:20.572Z,101743.59
2022-12-01T23:48:51.665Z,101729.28
2022-12-01T23:51:21.645Z,101724.41
2022-12-01T23:53:49.172Z,101742.78
2022-12-01T23:56:25.240Z,101731.13
2022-12-01T23:58:54.460Z,101738.13
